Time;durP1;ratioP1;P1;durP2;ratioP2;P2;SDS_P1;SDS_P2;PMS_P1;PMS_P2;Temp;Humidity;BMP_temperature;BMP_pressure;BME280_temperature;BME280_humidity;BME280_pressure;Samples;Min_cycle;Max_cycle;Signal;HPM_P1;HPM_P2
2022/07/29 00:01:26;;;;;;;19.65;7.95;;;;;;;18.86;93.25;100254.47;10459432;28;20051;-68
2022/07/29 00:06:27;;;;;;;11.90;7.57;;;;;;;18.40;93.61;100185.03;10458198;28;20059;-68
2022/07/29 00:11:28;;;;;;;18.80;7.95;;;;;;;18.54;94.05;100220.66;10458077;28;20057;-67
2022/07/29 00:16:29;;;;;;;15.13;7.20;;;;;;;18.87;94.25;100280.34;10458497;28;20463;-67
2022/07/29 00:21:30;;;;;;;13.98;6.95;;;;;;;18.80;94.52;100273.41;10459174;28;20091;-68
2022/07/29 00:26:32;;;;;;;10.15;6.50;;;;;;;18.89;95.14;100278.25;10456610;28;20093;-68
2022/07/29 00:31:33;;;;;;;13.13;6.07;;;;;;;18.87;95.15;100280.34;10458899;28;20049;-68
2022/07/29 00:36:33;;;;;;;9.88;6.22;;;;;;;18.84;95.68;100274.59;10458257;28;20182;-68
2022/07/29 00:41:34;;;;;;;42.58;7.88;;;;;;;18.79;95.23;100271.78;10456922;28;20059;-68
2022/07/29 00:46:35;;;;;;;40.92;7.97;;;;;;;18.76;95.26;100281.09;10456661;28;20044;-68
2022/07/29 00:51:37;;;;;;;11.90;6.30;;;;;;;18.12;95.56;100196.25;10457057;28;20128;-68
2022/07/29 00:56:38;;;;;;;10.30;6.28;;;;;;;18.56;95.82;100277.75;10456042;28;20048;-68
2022/07/29 01:01:39;;;;;;;19.15;8.45;;;;;;;18.50;96.41;100284.84;10456090;28;20047;-68
2022/07/29 01:06:40;;;;;;;24.42;8.95;;;;;;;18.43;97.05;100289.47;10456204;28;20139;-68
2022/07/29 01:11:43;;;;;;;40.45;8.35;;;;;;;18.36;97.69;100275.25;10456602;28;20099;-68
2022/07/29 01:16:50;;;;;;;30.30;9.13;;;;;;;17.52;99.82;100137.63;10455990;28;20040;-68
2022/07/29 01:21:55;;;;;;;39.05;10.18;;;;;;;17.86;98.64;100213.41;10454342;28;20055;-68
2022/07/29 01:27:31;;;;;;;16.23;7.20;;;;;;;17.97;100.00;100232.34;10458206;28;20029;-68
2022/07/29 01:32:36;;;;;;;20.38;7.10;;;;;;;18.11;99.98;100261.81;10456013;28;20139;-68
2022/07/29 01:38:22;;;;;;;30.75;8.68;;;;;;;18.23;100.00;100274.31;10455357;28;20045;-68
2022/07/29 01:43:38;;;;;;;23.52;7.90;;;;;;;18.17;100.00;100275.19;10455329;28;20130;-68
2022/07/29 01:48:44;;;;;;;33.88;8.50;;;;;;;18.22;100.00;100291.50;10455837;28;20493;-68
2022/07/29 01:54:24;;;;;;;18.90;7.75;;;;;;;18.33;100.00;100295.34;10453915;28;20116;-68
2022/07/29 01:59:26;;;;;;;17.02;7.25;;;;;;;17.84;98.99;100242.41;10453436;28;20056;-68
2022/07/29 02:04:29;;;;;;;17.08;6.70;;;;;;;18.20;99.53;100306.22;10454922;28;20048;-68
2022/07/29 02:09:33;;;;;;;30.60;7.63;;;;;;;18.20;99.76;100304.34;10452706;28;20056;-68
2022/07/29 02:14:38;;;;;;;20.08;6.55;;;;;;;17.80;99.82;100228.59;10453972;28;20291;-68
2022/07/29 02:19:43;;;;;;;20.42;6.75;;;;;;;18.26;98.97;100294.56;10453166;28;20041;-67
2022/07/29 02:24:44;;;;;;;41.50;7.22;;;;;;;18.06;98.94;100246.34;10454355;28;20408;-68
2022/07/29 02:29:47;;;;;;;27.73;7.88;;;;;;;18.61;98.87;100302.97;10454083;28;20048;-68
2022/07/29 02:34:49;;;;;;;25.42;7.25;;;;;;;18.87;98.12;100318.03;10453836;28;20044;-68
2022/07/29 02:39:53;;;;;;;23.48;7.88;;;;;;;18.51;97.93;100216.53;10469601;28;20079;-68
2022/07/29 02:44:54;;;;;;;;;;;;;;;19.48;96.39;100319.00;10457593;28;20045;-68
2022/07/29 02:50:08;;;;;;;11.68;5.95;;;;;;;19.45;96.71;100308.66;10485949;28;19920;-68
2022/07/29 02:55:30;;;;;;;17.98;6.70;;;;;;;19.75;96.66;100318.66;10495033;28;20090;-68
2022/07/29 03:00:36;;;;;;;36.28;6.85;;;;;;;19.71;94.31;100226.66;10494431;28;20044;-68
2022/07/29 03:05:37;;;;;;;12.30;6.57;;;;;;;20.38;92.46;100285.72;10495026;28;20042;-68
2022/07/29 03:10:45;;;;;;;7.07;6.03;;;;;;;20.26;92.22;100301.09;10494482;28;20397;-68
2022/07/29 03:15:47;;;;;;;12.82;6.68;;;;;;;20.26;92.99;100325.38;10494910;28;20131;-68
2022/07/29 03:20:48;;;;;;;11.70;6.18;;;;;;;20.43;91.75;100298.50;10501109;28;20036;-68
2022/07/29 03:25:49;;;;;;;19.48;6.18;;;;;;;21.87;85.44;100313.97;10501400;28;20044;-68
2022/07/29 03:30:50;;;;;;;14.30;6.80;;;;;;;23.49;78.45;100280.59;10501844;28;20047;-68
2022/07/29 03:35:51;;;;;;;15.20;5.72;;;;;;;25.41;72.11;100301.25;10501075;28;20040;-68
2022/07/29 03:40:57;;;;;;;8.80;5.32;;;;;;;26.69;64.14;100308.72;10501989;28;20541;-68
2022/07/29 03:46:00;;;;;;;5.53;4.88;;;;;;;27.70;61.31;100315.69;10500643;28;20040;-68
2022/07/29 03:51:01;;;;;;;;;;;;;;;29.55;62.22;100312.75;10498584;28;20557;-64
2022/07/29 03:56:03;;;;;;;7.13;4.45;;;;;;;28.92;59.11;100244.66;10496814;28;19974;-70
2022/07/29 04:01:04;;;;;;;7.40;4.65;;;;;;;29.21;56.33;100180.84;10481167;28;20393;-70
2022/07/29 04:06:06;;;;;;;7.53;4.80;;;;;;;30.40;52.55;100318.34;10473098;28;20123;-69
2022/07/29 04:11:07;;;;;;;11.48;4.80;;;;;;;31.00;51.00;100301.06;10481120;28;20054;-69
2022/07/29 04:16:08;;;;;;;12.48;4.95;;;;;;;31.64;49.84;100306.56;10490786;28;20050;-73
2022/07/29 04:21:09;;;;;;;9.63;4.65;;;;;;;31.53;49.22;100297.75;10477432;28;20044;-72
2022/07/29 04:26:10;;;;;;;9.25;5.20;;;;;;;31.19;48.49;100230.41;10490178;28;20044;-72
2022/07/29 04:31:12;;;;;;;5.65;4.40;;;;;;;31.44;48.05;100296.84;10488095;28;20037;-72
2022/07/29 04:36:13;;;;;;;8.60;4.78;;;;;;;31.14;49.02;100290.88;10491248;28;20052;-68
2022/07/29 04:41:14;;;;;;;8.48;5.30;;;;;;;30.82;49.46;100294.56;10488690;28;20044;-72
2022/07/29 04:46:15;;;;;;;18.60;6.18;;;;;;;30.45;49.17;100302.63;10499540;28;20071;-72
2022/07/29 04:51:16;;;;;;;8.82;5.63;;;;;;;29.92;49.46;100228.22;10496314;28;20037;-72
2022/07/29 04:56:17;;;;;;;8.07;5.40;;;;;;;30.29;49.01;100292.25;10496871;28;20039;-72
2022/07/29 05:01:18;;;;;;;7.80;5.05;;;;;;;30.50;48.94;100295.44;10497289;28;20055;-72
2022/07/29 05:06:19;;;;;;;6.72;4.32;;;;;;;30.18;48.76;100281.41;10497431;28;20040;-72
2022/07/29 05:11:20;;;;;;;5.90;4.00;;;;;;;29.61;48.18;100212.22;10497633;28;20051;-71
2022/07/29 05:16:21;;;;;;;4.90;3.80;;;;;;;29.25;49.94;100192.81;10497400;28;20036;-71
2022/07/29 05:21:21;;;;;;;4.22;3.70;;;;;;;29.45;49.76;100280.09;10497834;28;20416;-71
2022/07/29 05:26:22;;;;;;;6.80;3.65;;;;;;;29.00;49.85;100202.97;10497324;28;20134;-72
2022/07/29 05:31:23;;;;;;;13.63;4.25;;;;;;;29.60;50.41;100259.06;10496810;28;20036;-71
2022/07/29 05:36:24;;;;;;;10.45;3.95;;;;;;;29.43;50.19;100186.50;10496773;28;20047;-71
2022/07/29 05:41:25;;;;;;;7.95;4.25;;;;;;;30.00;49.44;100261.19;10495632;28;20048;-71
2022/07/29 05:46:26;;;;;;;5.82;3.70;;;;;;;30.11;49.15;100263.75;10495872;28;20042;-72
2022/07/29 05:51:27;;;;;;;4.63;4.00;;;;;;;30.21;49.87;100258.13;10496750;28;20119;-72
2022/07/29 05:56:28;;;;;;;14.23;6.72;;;;;;;30.29;48.59;100248.41;10490954;28;20044;-70
2022/07/29 06:01:28;;;;;;;6.13;3.85;;;;;;;30.61;47.06;100253.00;10467504;28;20044;-71
2022/07/29 06:06:29;;;;;;;5.63;3.90;;;;;;;30.62;47.11;100221.72;10455189;28;20037;-72
2022/07/29 06:11:30;;;;;;;7.53;4.00;;;;;;;30.72;46.71;100229.72;10454696;28;20514;-72
2022/07/29 06:16:31;;;;;;;4.93;3.25;;;;;;;30.51;46.05;100184.66;10454358;28;20048;-72
2022/07/29 06:21:33;;;;;;;5.75;3.53;;;;;;;31.21;45.77;100241.09;10454254;28;20127;-72
2022/07/29 06:26:34;;;;;;;3.60;3.17;;;;;;;31.22;44.89;100221.56;10454336;28;20040;-72
2022/07/29 06:31:34;;;;;;;7.30;3.55;;;;;;;31.28;44.18;100203.84;10454831;28;20106;-72
2022/07/29 06:36:36;;;;;;;5.50;3.30;;;;;;;31.33;43.07;100195.50;10453479;28;20033;-72
2022/07/29 06:41:37;;;;;;;5.30;3.30;;;;;;;31.69;42.63;100237.81;10453947;28;20412;-73
2022/07/29 06:46:38;;;;;;;5.72;3.63;;;;;;;31.29;41.80;100161.59;10453738;28;20048;-73
2022/07/29 06:51:39;;;;;;;5.05;3.30;;;;;;;31.52;42.41;100154.16;10453819;28;20161;-73
2022/07/29 06:56:42;;;;;;;5.57;3.35;;;;;;;31.93;41.80;100241.06;10461742;28;20044;-72
2022/07/29 07:01:43;;;;;;;4.28;3.05;;;;;;;31.53;40.73;100161.31;10461494;28;20400;-72
2022/07/29 07:06:44;;;;;;;6.47;3.03;;;;;;;31.73;40.22;100148.97;10461315;28;20045;-71
2022/07/29 07:11:45;;;;;;;4.65;3.20;;;;;;;32.22;39.28;100215.06;10460619;28;20057;-71
2022/07/29 07:16:46;;;;;;;6.28;3.10;;;;;;;32.44;39.02;100217.75;10460164;28;20408;-71
2022/07/29 07:21:46;;;;;;;5.90;3.78;;;;;;;32.33;38.90;100199.06;10460613;28;20044;-72
2022/07/29 07:26:47;;;;;;;7.18;3.75;;;;;;;32.20;38.70;100146.66;10460487;28;20037;-71
2022/07/29 07:31:48;;;;;;;9.68;3.97;;;;;;;32.90;39.49;100197.16;10460257;28;20053;-71
2022/07/29 07:36:49;;;;;;;6.40;4.10;;;;;;;33.12;38.56;100196.25;10459949;28;20036;-70
2022/07/29 07:41:50;;;;;;;6.03;4.00;;;;;;;33.23;37.70;100188.47;10460278;28;20144;-72
2022/07/29 07:46:50;;;;;;;7.00;3.83;;;;;;;33.24;37.92;100161.78;10459600;28;20098;-72
2022/07/29 07:51:52;;;;;;;8.00;3.78;;;;;;;33.52;37.72;100190.59;10460151;28;20063;-72
2022/07/29 07:56:53;;;;;;;6.07;4.00;;;;;;;33.33;37.26;100160.63;10459667;28;20047;-72
2022/07/29 08:01:53;;;;;;;5.50;3.95;;;;;;;33.23;37.03;100162.88;10459524;28;20496;-72
2022/07/29 08:06:55;;;;;;;4.90;3.80;;;;;;;33.38;37.02;100173.41;10458692;28;20075;-72
2022/07/29 08:11:58;;;;;;;5.17;3.60;;;;;;;33.50;36.92;100170.78;10459261;28;20131;-72
2022/07/29 08:16:59;;;;;;;7.30;3.90;;;;;;;33.58;36.77;100172.75;10458694;28;20107;-72
2022/07/29 08:22:00;;;;;;;7.25;3.60;;;;;;;33.65;35.88;100155.72;10458180;28;20062;-72
2022/07/29 08:27:00;;;;;;;4.82;3.75;;;;;;;33.48;35.80;100104.25;10458809;28;20045;-72
2022/07/29 08:32:02;;;;;;;5.70;4.00;;;;;;;33.73;34.93;100167.88;10457917;28;20497;-72
2022/07/29 08:37:03;;;;;;;8.60;4.38;;;;;;;33.59;35.10;100146.03;10457931;28;20040;-74
2022/07/29 08:42:05;;;;;;;8.57;3.97;;;;;;;33.38;35.50;100079.78;10457823;28;20045;-72
2022/07/29 08:47:06;;;;;;;15.25;4.63;;;;;;;33.92;34.80;100118.69;10458033;28;20496;-72
2022/07/29 08:52:09;;;;;;;6.10;3.47;;;;;;;34.09;34.19;100118.66;10456640;28;20569;-73
2022/07/29 08:57:13;;;;;;;15.27;4.35;;;;;;;34.69;34.74;100149.03;10457539;28;20040;-72
2022/07/29 09:02:22;;;;;;;7.30;4.00;;;;;;;34.73;33.55;100150.78;10456411;28;20052;-73
2022/07/29 09:07:23;;;;;;;7.43;3.90;;;;;;;34.28;34.45;100062.28;10456972;28;20095;-73
2022/07/29 09:12:25;;;;;;;7.97;3.60;;;;;;;34.65;33.65;100121.28;10456705;28;20505;-72
2022/07/29 09:17:43;;;;;;;7.30;3.65;;;;;;;34.36;33.95;100119.34;10455089;28;20140;-73
2022/07/29 09:22:49;;;;;;;7.15;4.05;;;;;;;34.44;34.46;100131.47;10455992;28;20060;-74
2022/07/29 09:27:50;;;;;;;4.45;3.75;;;;;;;34.70;33.76;100114.75;10455810;28;20091;-73
2022/07/29 09:32:58;;;;;;;8.70;3.90;;;;;;;34.71;32.93;100106.16;10455161;28;20044;-73
2022/07/29 09:38:10;;;;;;;9.95;4.22;;;;;;;35.04;34.12;100110.97;10455484;28;20037;-73
2022/07/29 09:43:12;;;;;;;4.85;3.50;;;;;;;34.93;32.39;100107.75;10455365;28;20540;-71
2022/07/29 09:48:18;;;;;;;4.93;3.55;;;;;;;34.94;32.46;100106.63;10455521;28;20037;-72
2022/07/29 09:53:36;;;;;;;5.20;2.92;;;;;;;34.60;32.41;100063.56;10454396;28;20443;-73
2022/07/29 09:58:37;;;;;;;8.38;3.25;;;;;;;34.40;32.84;100092.69;10454274;28;20045;-74
2022/07/29 10:03:52;;;;;;;13.23;3.38;;;;;;;34.85;32.63;100097.63;10454625;28;20041;-73
2022/07/29 10:08:53;;;;;;;4.85;3.30;;;;;;;35.10;31.92;100089.47;10454129;28;20501;-73
2022/07/29 10:13:54;;;;;;;4.90;2.87;;;;;;;35.15;31.62;100089.25;10453875;28;20071;-72
2022/07/29 10:18:55;;;;;;;4.90;3.25;;;;;;;35.54;31.32;100076.00;10453049;28;20056;-72
2022/07/29 10:23:58;;;;;;;4.10;3.17;;;;;;;35.68;31.24;100090.34;10453672;28;20037;-73
2022/07/29 10:29:00;;;;;;;9.68;3.13;;;;;;;35.74;31.80;100102.78;10460552;28;20048;-71
2022/07/29 10:34:08;;;;;;;6.53;3.22;;;;;;;35.21;32.39;100093.41;10462075;28;20056;-73
2022/07/29 10:39:26;;;;;;;7.88;3.15;;;;;;;34.03;32.69;100004.22;10461901;28;20040;-72
2022/07/29 10:44:27;;;;;;;4.70;2.70;;;;;;;34.53;32.56;100058.56;10462276;28;20044;-73
2022/07/29 10:49:29;;;;;;;7.13;2.70;;;;;;;34.95;31.83;100066.84;10461689;28;20504;-73
2022/07/29 10:54:47;;;;;;;10.60;3.00;;;;;;;35.08;32.33;100055.88;10462434;28;20497;-73
2022/07/29 10:59:50;;;;;;;7.40;2.80;;;;;;;35.13;31.07;100052.91;10460809;28;20287;-73
2022/07/29 11:04:51;;;;;;;3.40;2.40;;;;;;;35.30;30.97;100072.06;10460939;28;20111;-73
2022/07/29 11:10:14;;;;;;;6.18;2.47;;;;;;;35.67;30.41;100077.69;10461041;28;20111;-72
2022/07/29 11:15:18;;;;;;;5.93;2.50;;;;;;;35.62;30.24;100064.09;10469467;28;20045;-72
2022/07/29 11:20:45;;;;;;;8.48;2.58;;;;;;;35.67;29.46;100061.09;10474396;28;20078;-73
2022/07/29 11:26:12;;;;;;;7.18;2.50;;;;;;;35.32;29.16;100066.19;10477876;28;20043;-72
2022/07/29 11:31:14;;;;;;;5.93;2.38;;;;;;;35.18;28.80;100056.25;10477187;28;20036;-72
2022/07/29 11:36:15;;;;;;;4.28;2.30;;;;;;;34.70;28.53;99972.13;10476706;28;20044;-71
2022/07/29 11:41:25;;;;;;;8.02;2.10;;;;;;;35.28;28.54;100046.72;10474521;28;20032;-72
2022/07/29 11:46:49;;;;;;;10.30;2.60;;;;;;;35.48;28.51;100055.28;10476337;28;20532;-71
2022/07/29 11:51:57;;;;;;;5.82;2.50;;;;;;;35.42;28.84;100040.88;10480336;28;20033;-72
2022/07/29 11:56:59;;;;;;;5.30;2.53;;;;;;;35.40;28.63;100030.19;10475320;28;20047;-72
2022/07/29 12:02:00;;;;;;;5.57;2.53;;;;;;;35.52;28.48;100015.59;10474202;28;20393;-71
2022/07/29 12:07:00;;;;;;;7.10;2.40;;;;;;;35.25;28.35;100000.47;10473247;28;20032;-70
2022/07/29 12:12:02;;;;;;;4.38;2.38;;;;;;;35.23;27.41;100005.53;10474660;28;20112;-73
2022/07/29 12:17:02;;;;;;;4.80;2.07;;;;;;;35.21;27.94;100000.34;10473843;28;20032;-72
2022/07/29 12:22:03;;;;;;;4.18;2.22;;;;;;;35.46;28.28;100013.41;10475327;28;20033;-72
2022/07/29 12:27:04;;;;;;;10.05;5.93;;;;;;;35.54;28.53;99999.50;10472319;28;20052;-72
2022/07/29 12:32:05;;;;;;;5.40;2.70;;;;;;;35.54;27.57;100001.41;10481336;28;20048;-71
2022/07/29 12:37:09;;;;;;;7.97;2.93;;;;;;;35.51;27.46;100002.09;10475464;28;20447;-71
2022/07/29 12:42:12;;;;;;;7.88;2.20;;;;;;;35.52;26.75;99976.13;10490155;28;20044;-72
2022/07/29 12:47:14;;;;;;;3.97;2.63;;;;;;;35.63;27.36;100000.22;10487297;28;20503;-71
2022/07/29 12:52:25;;;;;;;;;;;;;;;35.57;25.72;100004.34;10455473;28;20067;-70
2022/07/29 12:57:26;;;;;;;6.07;1.88;;;;;;;35.16;27.78;99985.97;10477093;28;19916;-70
2022/07/29 13:02:27;;;;;;;8.05;5.97;;;;;;;35.26;27.17;99996.56;10494143;28;20051;-70
2022/07/29 13:07:34;;;;;;;11.10;3.95;;;;;;;35.37;26.73;100000.50;10494286;28;20143;-70
2022/07/29 13:12:36;;;;;;;5.28;3.00;;;;;;;35.14;26.54;99974.44;10489241;28;20048;-70
2022/07/29 13:17:43;;;;;;;9.52;2.47;;;;;;;35.27;26.10;100006.47;10495302;28;20037;-70
2022/07/29 13:22:48;;;;;;;6.70;2.75;;;;;;;35.17;26.95;99998.59;10490763;28;20091;-71
2022/07/29 13:27:49;;;;;;;4.63;1.92;;;;;;;35.26;26.81;99988.28;10490498;28;20602;-70
2022/07/29 13:32:51;;;;;;;2.80;1.60;;;;;;;35.09;26.65;99967.22;10487317;28;20040;-70
2022/07/29 13:37:52;;;;;;;;;;;;;;;35.50;26.32;99994.97;10470248;28;20072;-71
2022/07/29 13:42:53;;;;;;;33.50;5.00;;;;;;;34.39;27.61;99859.47;10487481;28;19927;-72
2022/07/29 13:47:54;;;;;;;2.90;1.80;;;;;;;35.03;26.97;99954.72;10467946;28;20041;-71
2022/07/29 13:52:55;;;;;;;3.67;2.22;;;;;;;35.17;27.12;99991.13;10462843;28;20631;-72
2022/07/29 13:57:56;;;;;;;4.07;2.70;;;;;;;34.90;27.03;99970.44;10474286;28;20037;-71
2022/07/29 14:02:57;;;;;;;7.35;2.22;;;;;;;34.82;27.20;99959.50;10468741;28;20058;-72
2022/07/29 14:07:58;;;;;;;5.97;2.03;;;;;;;34.93;26.97;99971.72;10471895;28;20079;-71
2022/07/29 14:12:58;;;;;;;5.50;1.92;;;;;;;34.42;26.97;99896.59;10488706;28;20056;-72
2022/07/29 14:18:02;;;;;;;8.02;2.30;;;;;;;34.28;27.40;99886.66;10482793;28;20060;-71
2022/07/29 14:23:02;;;;;;;4.50;1.87;;;;;;;34.53;27.45;99945.47;10474241;28;20080;-71
2022/07/29 14:28:03;;;;;;;3.50;1.73;;;;;;;34.53;27.37;99956.50;10478648;28;20068;-71
2022/07/29 14:33:04;;;;;;;5.80;1.95;;;;;;;34.05;27.30;99877.94;10471066;28;20603;-70
2022/07/29 14:38:05;;;;;;;3.75;2.05;;;;;;;34.52;27.66;99965.94;10469636;28;20044;-71
2022/07/29 14:43:06;;;;;;;6.70;2.05;;;;;;;34.45;27.74;99962.91;10469433;28;20047;-71
2022/07/29 14:48:07;;;;;;;3.03;1.50;;;;;;;34.39;27.62;99949.66;10477432;28;20415;-71
2022/07/29 14:53:08;;;;;;;3.45;1.90;;;;;;;33.57;27.88;99823.34;10482300;28;20055;-71
2022/07/29 14:58:09;;;;;;;11.77;2.40;;;;;;;34.39;28.55;99972.50;10494522;28;20472;-71
2022/07/29 15:03:10;;;;;;;9.30;2.15;;;;;;;34.28;28.91;99960.28;10493478;28;20492;-71
2022/07/29 15:08:11;;;;;;;17.70;2.45;;;;;;;33.93;28.84;99919.19;10494393;28;20487;-72
2022/07/29 15:13:12;;;;;;;8.63;2.47;;;;;;;33.33;28.97;99840.47;10495205;28;20060;-71
2022/07/29 15:18:13;;;;;;;15.65;2.60;;;;;;;33.74;29.51;99927.88;10501400;28;20044;-71
2022/07/29 15:23:13;;;;;;;7.68;2.42;;;;;;;33.77;29.59;99963.00;10501785;28;20508;-71
2022/07/29 15:28:14;;;;;;;16.83;2.53;;;;;;;33.71;30.24;99967.09;10502020;28;20048;-71
2022/07/29 15:33:15;;;;;;;36.78;3.70;;;;;;;33.53;30.64;99968.34;10500329;28;20072;-71
2022/07/29 15:38:16;;;;;;;15.45;2.65;;;;;;;33.37;30.97;99963.34;10500404;28;20040;-71
2022/07/29 15:43:17;;;;;;;13.00;5.47;;;;;;;33.15;31.15;99974.63;10500349;28;20040;-72
2022/07/29 15:48:18;;;;;;;12.90;7.55;;;;;;;32.90;31.81;99977.06;10500423;28;20412;-71
2022/07/29 15:53:19;;;;;;;11.27;5.28;;;;;;;32.70;32.32;99989.56;10499966;28;20040;-71
2022/07/29 15:58:20;;;;;;;19.63;4.68;;;;;;;32.33;33.11;99974.47;10498514;28;20040;-71
2022/07/29 16:03:21;;;;;;;25.08;3.80;;;;;;;32.09;33.50;99985.94;10499179;28;20044;-72
2022/07/29 16:08:22;;;;;;;15.57;3.38;;;;;;;31.03;34.49;99856.06;10489195;28;20032;-72
2022/07/29 16:13:23;;;;;;;14.68;2.95;;;;;;;31.41;35.91;99993.63;10477808;28;20098;-67
2022/07/29 16:18:24;;;;;;;15.18;3.03;;;;;;;30.97;37.20;99980.75;10489245;28;20048;-67
2022/07/29 16:23:25;;;;;;;15.45;3.20;;;;;;;30.78;37.92;100009.16;10485735;28;20059;-68
2022/07/29 16:28:26;;;;;;;27.23;4.85;;;;;;;30.40;39.19;100004.00;10462113;28;20414;-67
2022/07/29 16:33:27;;;;;;;48.35;5.95;;;;;;;30.09;39.55;100008.47;10415884;28;20468;-67
2022/07/29 16:38:28;;;;;;;22.42;5.10;;;;;;;29.81;40.69;99997.56;10416123;28;20041;-67
2022/07/29 16:43:29;;;;;;;25.63;4.57;;;;;;;29.31;40.49;99945.41;10415692;28;20116;-67
2022/07/29 16:48:29;;;;;;;43.28;6.10;;;;;;;29.65;40.38;100015.41;10415495;28;20041;-68
2022/07/29 16:53:30;;;;;;;25.25;4.82;;;;;;;29.34;40.17;100008.53;10419410;28;20555;-67
2022/07/29 16:58:32;;;;;;;18.33;4.43;;;;;;;28.75;40.04;99939.00;10439115;28;20045;-65
2022/07/29 17:03:32;;;;;;;35.20;6.22;;;;;;;29.20;40.16;100031.53;10441324;28;20082;-67
2022/07/29 17:08:33;;;;;;;37.40;6.82;;;;;;;29.02;40.99;100041.38;10446917;28;20041;-67
2022/07/29 17:13:34;;;;;;;26.10;5.70;;;;;;;28.83;41.80;100044.09;10449706;28;20065;-67
2022/07/29 17:18:35;;;;;;;41.00;15.63;;;;;;;28.48;43.10;100040.78;10453929;28;20389;-67
2022/07/29 17:23:36;;;;;;;75.10;15.85;;;;;;;28.21;45.25;100052.31;10438778;28;20469;-67
2022/07/29 17:28:36;;;;;;;34.83;13.57;;;;;;;27.92;45.70;100060.59;10414174;28;20492;-67
2022/07/29 17:33:37;;;;;;;45.53;17.38;;;;;;;27.59;48.06;100054.91;10419242;28;20480;-68
2022/07/29 17:38:38;;;;;;;24.05;9.35;;;;;;;27.15;48.73;100039.47;10449887;28;20398;-67
2022/07/29 17:43:40;;;;;;;32.65;9.35;;;;;;;27.06;49.77;100068.41;10452265;28;20037;-67
2022/07/29 17:48:41;;;;;;;32.58;11.02;;;;;;;26.27;51.07;99986.63;10452654;28;20068;-66
2022/07/29 17:53:42;;;;;;;33.90;13.43;;;;;;;26.49;52.09;100048.88;10453062;28;20067;-67
2022/07/29 17:58:43;;;;;;;22.90;10.30;;;;;;;26.35;52.75;100061.47;10453516;28;20078;-66
2022/07/29 18:03:44;;;;;;;29.02;9.63;;;;;;;26.04;53.16;100067.03;10449787;28;20057;-66
2022/07/29 18:08:48;;;;;;;35.95;14.00;;;;;;;25.97;53.63;100077.41;10454698;28;20123;-67
2022/07/29 18:13:49;;;;;;;31.38;11.73;;;;;;;25.24;55.11;99998.91;10455144;28;20057;-66
2022/07/29 18:18:50;;;;;;;25.00;11.35;;;;;;;25.55;54.86;100080.44;10454240;28;20047;-66
2022/07/29 18:23:51;;;;;;;17.00;5.95;;;;;;;24.80;55.98;99981.22;10453637;28;20044;-66
2022/07/29 18:28:52;;;;;;;17.45;7.03;;;;;;;24.78;57.33;99988.00;10453529;28;20047;-66
2022/07/29 18:33:53;;;;;;;19.50;7.10;;;;;;;25.23;58.49;100086.97;10454141;28;20128;-66
2022/07/29 18:38:54;;;;;;;26.23;8.63;;;;;;;24.52;59.31;100004.25;10453909;28;20098;-67
2022/07/29 18:43:54;;;;;;;21.48;7.18;;;;;;;24.91;59.70;100077.13;10454252;28;20053;-67
2022/07/29 18:48:56;;;;;;;12.80;6.63;;;;;;;24.79;58.67;100074.66;10458133;28;20485;-66
2022/07/29 18:53:56;;;;;;;11.35;6.20;;;;;;;24.73;58.94;100070.31;10462029;28;20033;-66
2022/07/29 18:58:57;;;;;;;13.60;6.05;;;;;;;24.56;59.90;100043.41;10461570;28;20480;-66
2022/07/29 19:03:59;;;;;;;16.95;4.90;;;;;;;24.56;61.37;100078.69;10462053;28;20048;-66
2022/07/29 19:09:00;;;;;;;16.15;6.30;;;;;;;24.47;62.17;100066.72;10459549;28;20447;-66
2022/07/29 19:14:01;;;;;;;10.98;3.85;;;;;;;24.28;61.78;100038.38;10460744;28;20079;-66
2022/07/29 19:19:02;;;;;;;9.13;3.78;;;;;;;24.35;62.38;100064.22;10461063;28;20046;-66
2022/07/29 19:24:03;;;;;;;28.52;5.40;;;;;;;23.24;63.36;99905.22;10461371;28;20071;-65
2022/07/29 19:29:04;;;;;;;8.52;3.75;;;;;;;24.05;62.85;100039.63;10460078;28;20557;-66
2022/07/29 19:34:07;;;;;;;10.98;3.70;;;;;;;24.06;63.01;100066.53;10459832;28;20136;-65
2022/07/29 19:39:08;;;;;;;9.00;4.00;;;;;;;23.80;63.92;100060.13;10459691;28;20041;-65
2022/07/29 19:44:10;;;;;;;13.35;3.65;;;;;;;22.99;64.91;99943.81;10460193;28;20045;-66
2022/07/29 19:49:12;;;;;;;19.88;4.40;;;;;;;23.63;65.78;100063.00;10460267;28;20037;-65
2022/07/29 19:54:14;;;;;;;15.13;3.70;;;;;;;23.10;66.82;99974.53;10457600;28;20068;-65
2022/07/29 19:59:15;;;;;;;7.72;3.05;;;;;;;22.29;67.02;99881.50;10458342;28;20139;-65
2022/07/29 20:04:16;;;;;;;7.13;3.70;;;;;;;23.07;67.91;100035.47;10459348;28;20503;-65
2022/07/29 20:09:17;;;;;;;9.77;3.17;;;;;;;23.16;66.81;100047.47;10449053;28;20037;-65
2022/07/29 20:14:18;;;;;;;11.10;3.60;;;;;;;22.77;66.71;99987.22;10459357;28;20144;-65
2022/07/29 20:19:19;;;;;;;10.60;3.70;;;;;;;22.66;66.75;99980.91;10458520;28;20037;-65
2022/07/29 20:24:20;;;;;;;7.43;3.58;;;;;;;22.91;67.15;100022.81;10458526;28;20485;-66
2022/07/29 20:29:21;;;;;;;8.43;3.42;;;;;;;22.84;67.71;100042.00;10459226;28;20071;-65
2022/07/29 20:34:22;;;;;;;14.15;4.47;;;;;;;22.79;68.89;100055.47;10457607;28;20048;-66
2022/07/29 20:39:23;;;;;;;6.70;3.80;;;;;;;22.61;68.96;100036.88;10457247;28;20033;-65
2022/07/29 20:44:24;;;;;;;16.55;5.13;;;;;;;22.65;69.95;100052.38;10457869;28;20076;-65
2022/07/29 20:49:25;;;;;;;9.82;3.92;;;;;;;22.59;70.51;100037.16;10456875;28;20102;-66
2022/07/29 20:54:26;;;;;;;28.15;4.93;;;;;;;22.63;71.49;100046.38;10457183;28;20501;-65
2022/07/29 20:59:27;;;;;;;8.45;3.75;;;;;;;22.49;71.12;100012.66;10456707;28;20037;-65
2022/07/29 21:04:27;;;;;;;8.00;4.20;;;;;;;22.64;71.70;100042.59;10456945;28;20066;-66
2022/07/29 21:09:28;;;;;;;10.38;4.15;;;;;;;22.38;72.13;100038.81;10456678;28;20037;-66
2022/07/29 21:14:47;;;;;;;9.27;4.15;;;;;;;21.99;73.16;100006.41;10455298;28;20136;-67
2022/07/29 21:19:51;;;;;;;9.25;4.82;;;;;;;21.74;73.39;99974.41;10455858;28;20542;-66
2022/07/29 21:24:52;;;;;;;14.35;4.97;;;;;;;21.61;73.83;99991.03;10455478;28;20044;-65
2022/07/29 21:29:53;;;;;;;20.05;5.47;;;;;;;20.91;74.20;99895.97;10457230;28;20045;-66
2022/07/29 21:34:53;;;;;;;22.33;5.38;;;;;;;21.65;74.67;100013.78;10455045;28;20174;-66
2022/07/29 21:39:54;;;;;;;13.18;5.20;;;;;;;21.73;74.94;100029.56;10455352;28;20048;-67
2022/07/29 21:44:55;;;;;;;9.52;5.25;;;;;;;21.60;75.25;100022.66;10455591;28;20048;-65
2022/07/29 21:49:57;;;;;;;15.43;5.55;;;;;;;21.07;76.27;99958.31;10455622;28;20132;-65
2022/07/29 21:54:58;;;;;;;9.35;5.47;;;;;;;21.46;75.83;100020.53;10454434;28;20496;-66
2022/07/29 21:59:59;;;;;;;11.57;5.32;;;;;;;21.10;75.59;99955.13;10454888;28;20045;-65
2022/07/29 22:05:00;;;;;;;16.60;5.72;;;;;;;21.53;75.88;100026.56;10454994;28;20401;-66
2022/07/29 22:10:01;;;;;;;11.25;5.95;;;;;;;20.87;76.40;99932.63;10453930;28;20052;-65
2022/07/29 22:15:03;;;;;;;16.45;6.32;;;;;;;21.39;77.69;100026.13;10454556;28;20045;-66
2022/07/29 22:20:05;;;;;;;16.95;7.18;;;;;;;21.23;76.87;99981.78;10453309;28;20041;-66
2022/07/29 22:25:07;;;;;;;17.98;6.57;;;;;;;21.38;76.97;100002.84;10454231;28;20448;-65
2022/07/29 22:30:08;;;;;;;17.40;6.63;;;;;;;21.42;77.19;100031.84;10453034;28;20127;-66
2022/07/29 22:35:10;;;;;;;13.07;6.88;;;;;;;21.38;77.54;100033.38;10454201;28;20032;-66
2022/07/29 22:40:11;;;;;;;15.30;9.07;;;;;;;21.31;77.33;100023.78;10453623;28;20072;-66
2022/07/29 22:45:12;;;;;;;16.67;8.63;;;;;;;20.91;77.17;99949.97;10453437;28;20424;-66
2022/07/29 22:50:12;;;;;;;18.67;8.05;;;;;;;21.29;77.37;100015.91;10454327;28;20041;-66
2022/07/29 22:55:14;;;;;;;13.68;9.20;;;;;;;21.18;77.88;100016.84;10454013;28;20044;-66
2022/07/29 23:00:15;;;;;;;17.20;9.85;;;;;;;20.59;78.07;99928.13;10453614;28;20140;-66
2022/07/29 23:05:16;;;;;;;22.92;12.25;;;;;;;20.90;78.47;99994.22;10453627;28;20112;-66
2022/07/29 23:10:17;;;;;;;21.77;12.15;;;;;;;20.42;78.68;99938.84;10453271;28;20403;-65